Pendleton, Louisiana
Current Conditions -  °F | °C
As of 7:56 PM on Sunday 25 Jan 2015 (Local Time) from KAQV Reporting Station
Clear Clear  
Wind Chill: 57°   Ceiling: Unl
Heat Index: 57°   Visibility: 10mi
Dew Point: 28°   Wind: 3mph
Humidity: 33%   Direction: NA
Pressure: 30"   Gusts: NA
Location:  31.6044°N, 93.4433°W
Report Text: KAQV 260156Z AUTO VRB03KT 10SM CLR 14/M02 A3000 RMK AO2 SLP160 T01391022 PNO $
Loading
Personal Weather Stations






























Interactive Weather Map New forecast layout! Learn more

10-Day Weather Forecast

Advertisements
Track Severe Weather on mobile